createdAt,value
2023-04-11T00:00:13.204Z,18.00
2023-04-11T00:02:40.524Z,18.70
2023-04-11T00:05:08.616Z,16.90
2023-04-11T00:07:36.120Z,16.05
2023-04-11T00:10:03.406Z,18.60
2023-04-11T00:12:31.004Z,15.93
2023-04-11T00:14:57.912Z,16.60
2023-04-11T00:17:25.059Z,15.35
2023-04-11T00:19:53.380Z,16.08
2023-04-11T00:22:20.705Z,18.43
2023-04-11T00:24:47.575Z,18.38
2023-04-11T00:27:16.017Z,16.25
2023-04-11T00:29:43.210Z,17.60
2023-04-11T00:32:10.286Z,16.67
2023-04-11T00:34:37.529Z,18.05
2023-04-11T00:37:04.690Z,17.92
2023-04-11T00:39:34.199Z,19.52
2023-04-11T00:42:08.913Z,18.45
2023-04-11T00:44:36.496Z,18.67
2023-04-11T00:47:07.275Z,17.73
2023-04-11T00:49:35.309Z,19.33
2023-04-11T00:52:03.136Z,16.05
2023-04-11T00:54:33.723Z,18.17
2023-04-11T00:57:05.777Z,17.25
2023-04-11T00:59:33.734Z,15.27
2023-04-11T01:02:01.759Z,17.73
2023-04-11T01:04:30.029Z,17.75
2023-04-11T01:07:04.275Z,17.80
2023-04-11T01:09:34.048Z,18.52
2023-04-11T01:12:03.012Z,18.15
2023-04-11T01:14:30.716Z,20.73
2023-04-11T01:16:58.781Z,18.83
2023-04-11T01:19:26.725Z,18.02
2023-04-11T01:21:56.536Z,18.00
2023-04-11T01:24:24.148Z,18.52
2023-04-11T01:26:52.118Z,17.50
2023-04-11T01:29:20.441Z,18.85
2023-04-11T01:31:47.417Z,18.92
2023-04-11T01:34:17.154Z,17.52
2023-04-11T01:36:44.968Z,18.17
2023-04-11T01:39:11.947Z,17.50
2023-04-11T01:41:40.850Z,16.90
2023-04-11T01:44:08.272Z,18.85
2023-04-11T01:46:36.518Z,19.10
2023-04-11T01:49:04.062Z,19.95
2023-04-11T01:51:32.251Z,16.63
2023-04-11T01:53:59.325Z,18.73
2023-04-11T01:56:26.512Z,20.10
2023-04-11T01:58:54.085Z,18.02
2023-04-11T02:01:21.717Z,18.70
2023-04-11T02:03:49.039Z,20.65
2023-04-11T02:06:16.910Z,18.08
2023-04-11T02:08:44.845Z,24.83
2023-04-11T02:11:11.958Z,19.15
2023-04-11T02:13:38.995Z,19.95
2023-04-11T02:16:15.278Z,20.23
2023-04-11T02:18:44.227Z,19.05
2023-04-11T02:21:12.135Z,20.75
2023-04-11T02:23:39.516Z,19.60
2023-04-11T02:26:06.592Z,19.35
2023-04-11T02:28:33.749Z,19.58
2023-04-11T02:31:01.024Z,22.65
2023-04-11T02:33:28.256Z,21.50
2023-04-11T02:35:55.726Z,20.52
2023-04-11T02:38:23.201Z,19.48
2023-04-11T02:40:51.557Z,20.25
2023-04-11T02:43:18.665Z,22.98
2023-04-11T02:45:45.809Z,24.13
2023-04-11T02:48:14.458Z,23.08
2023-04-11T02:50:44.785Z,22.35
2023-04-11T02:53:12.379Z,22.25
2023-04-11T02:55:46.840Z,23.60
2023-04-11T02:58:17.814Z,22.00
2023-04-11T03:00:49.512Z,26.42
2023-04-11T03:03:16.880Z,22.98
2023-04-11T03:08:16.048Z,25.75
2023-04-11T03:10:49.823Z,22.80
2023-04-11T03:13:17.496Z,24.08
2023-04-11T03:15:45.181Z,24.83
2023-04-11T03:18:13.094Z,23.90
2023-04-11T03:20:43.654Z,27.05
2023-04-11T03:25:40.605Z,25.00
2023-04-11T03:28:08.589Z,26.25
2023-04-11T03:30:35.787Z,28.60
2023-04-11T03:33:02.879Z,25.58
2023-04-11T03:35:31.755Z,26.07
2023-04-11T03:37:59.830Z,22.63
2023-04-11T03:40:27.407Z,25.58
2023-04-11T03:43:06.906Z,27.73
2023-04-11T03:45:36.533Z,26.10
2023-04-11T03:48:06.921Z,26.25
2023-04-11T03:50:59.570Z,28.20
2023-04-11T03:53:36.313Z,27.73
2023-04-11T03:56:17.211Z,24.00
2023-04-11T03:58:44.472Z,27.83
2023-04-11T04:01:11.922Z,27.15
2023-04-11T04:03:39.824Z,26.50
2023-04-11T04:06:10.810Z,28.45
2023-04-11T04:08:39.763Z,27.92
2023-04-11T04:11:07.251Z,27.65
2023-04-11T04:16:12.908Z,24.42
2023-04-11T04:18:42.892Z,28.77
2023-04-11T04:21:11.068Z,26.08
2023-04-11T04:23:39.558Z,27.40
2023-04-11T04:26:25.208Z,25.73
2023-04-11T04:29:34.184Z,27.73
2023-04-11T04:32:11.824Z,27.83
2023-04-11T04:34:49.363Z,26.52
2023-04-11T04:37:25.008Z,28.42
2023-04-11T04:40:09.171Z,31.98
2023-04-11T04:42:45.136Z,29.80
2023-04-11T04:45:12.212Z,29.27
2023-04-11T04:47:40.513Z,32.00
2023-04-11T04:50:08.576Z,32.30
2023-04-11T04:52:35.540Z,31.30
2023-04-11T04:55:02.651Z,30.17
2023-04-11T04:57:32.315Z,30.13
2023-04-11T05:00:00.589Z,30.80
2023-04-11T05:05:04.062Z,30.77
2023-04-11T05:07:32.943Z,29.42
2023-04-11T05:10:02.463Z,28.02
2023-04-11T05:12:30.704Z,30.95
2023-04-11T05:15:03.419Z,30.27
2023-04-11T05:17:33.047Z,32.55
2023-04-11T05:20:00.544Z,30.48
2023-04-11T05:22:28.229Z,29.33
2023-04-11T05:24:57.215Z,33.08
2023-04-11T05:27:24.319Z,29.63
2023-04-11T05:29:51.665Z,28.42
2023-04-11T05:32:19.650Z,28.50
2023-04-11T05:34:58.150Z,31.73
2023-04-11T05:37:40.165Z,29.48
2023-04-11T05:40:09.574Z,30.58
2023-04-11T05:45:06.287Z,28.80
2023-04-11T05:47:33.739Z,28.95
2023-04-11T05:50:01.454Z,27.77
2023-04-11T05:52:29.040Z,27.00
2023-04-11T05:54:56.336Z,27.42
2023-04-11T05:57:23.886Z,27.52
2023-04-11T05:59:53.288Z,27.23
2023-04-11T06:02:20.774Z,26.40
2023-04-11T06:04:48.281Z,24.83
2023-04-11T06:07:15.827Z,26.30
2023-04-11T06:09:43.145Z,22.85
2023-04-11T06:12:10.658Z,23.73
2023-04-11T06:14:40.641Z,23.92
2023-04-11T06:17:08.034Z,24.30
2023-04-11T06:19:34.982Z,23.85
2023-04-11T06:22:02.030Z,24.33
2023-04-11T06:24:37.455Z,22.00
2023-04-11T06:27:04.766Z,21.52
2023-04-11T06:29:32.461Z,23.25
2023-04-11T06:31:59.604Z,22.50
2023-04-11T06:34:26.767Z,22.27
2023-04-11T06:36:54.066Z,22.33
2023-04-11T06:39:21.906Z,20.88
2023-04-11T06:41:49.852Z,19.38
2023-04-11T06:44:24.752Z,20.15
2023-04-11T06:46:51.924Z,23.80
2023-04-11T06:49:19.093Z,19.42
2023-04-11T06:51:47.348Z,19.27
2023-04-11T06:54:14.241Z,21.75
2023-04-11T06:56:41.287Z,19.52
2023-04-11T06:59:08.425Z,20.08
2023-04-11T07:01:39.540Z,21.13
2023-04-11T07:04:07.438Z,21.88
2023-04-11T07:06:35.990Z,18.45
2023-04-11T07:09:06.776Z,20.23
2023-04-11T07:11:33.928Z,17.00
2023-04-11T07:14:01.471Z,19.10
2023-04-11T07:16:28.725Z,21.25
2023-04-11T07:18:55.937Z,19.70
2023-04-11T07:21:23.194Z,17.95
2023-04-11T07:23:50.204Z,20.85
2023-04-11T07:26:18.189Z,18.10
2023-04-11T07:28:48.316Z,18.48
2023-04-11T07:31:21.678Z,17.27
2023-04-11T07:33:48.935Z,21.00
2023-04-11T07:36:16.467Z,17.80
2023-04-11T07:38:43.628Z,16.02
2023-04-11T07:41:10.544Z,19.10
2023-04-11T07:43:38.901Z,16.45
2023-04-11T07:46:06.909Z,18.50
2023-04-11T07:48:34.041Z,18.15
2023-04-11T07:51:01.862Z,24.83
2023-04-11T07:53:31.086Z,16.77
2023-04-11T07:55:58.468Z,19.60
2023-04-11T07:58:25.624Z,15.63
2023-04-11T08:00:53.714Z,16.58
2023-04-11T08:03:21.200Z,17.42
2023-04-11T08:05:48.395Z,15.85
2023-04-11T08:08:19.007Z,17.52
2023-04-11T08:10:46.132Z,17.90
2023-04-11T08:13:13.398Z,15.48
2023-04-11T08:15:40.568Z,15.05
2023-04-11T08:18:07.669Z,15.25
2023-04-11T08:20:34.964Z,18.23
2023-04-11T08:23:06.237Z,12.85
2023-04-11T08:25:33.570Z,15.18
2023-04-11T08:28:00.646Z,21.00
2023-04-11T08:30:27.733Z,16.05
2023-04-11T08:32:54.855Z,15.25
2023-04-11T08:35:22.155Z,14.52
2023-04-11T08:37:50.652Z,15.43
2023-04-11T08:40:18.216Z,11.93
2023-04-11T08:42:46.106Z,14.93
2023-04-11T08:45:13.458Z,14.07
2023-04-11T08:47:41.985Z,15.20
2023-04-11T08:50:11.173Z,13.00
2023-04-11T08:52:40.181Z,13.95
2023-04-11T08:55:07.497Z,12.80
2023-04-11T08:57:35.003Z,13.48
2023-04-11T09:00:19.041Z,14.07
2023-04-11T09:03:04.242Z,13.50
2023-04-11T09:05:35.544Z,14.02
2023-04-11T09:08:07.683Z,14.35
2023-04-11T09:10:35.912Z,13.55
2023-04-11T09:13:21.187Z,14.93
2023-04-11T09:15:48.624Z,13.10
2023-04-11T09:18:33.009Z,13.60
2023-04-11T09:21:01.835Z,14.43
2023-04-11T09:23:29.242Z,15.75
2023-04-11T09:25:57.220Z,13.93
2023-04-11T09:28:24.798Z,14.50
2023-04-11T09:30:53.612Z,13.20
2023-04-11T09:33:23.187Z,12.35
2023-04-11T09:35:54.840Z,13.23
2023-04-11T09:38:36.728Z,11.93
2023-04-11T09:41:04.605Z,12.25
2023-04-11T09:43:55.707Z,13.05
2023-04-11T09:46:23.223Z,15.80
2023-04-11T09:48:51.981Z,14.18
2023-04-11T09:51:35.059Z,14.20
2023-04-11T09:54:04.501Z,15.93
2023-04-11T09:56:36.336Z,13.68
2023-04-11T09:59:04.437Z,14.98
2023-04-11T10:01:32.319Z,16.15
2023-04-11T10:04:01.062Z,16.00
2023-04-11T10:06:39.152Z,15.98
2023-04-11T10:09:11.767Z,14.60
2023-04-11T10:11:44.176Z,16.05
2023-04-11T10:14:39.463Z,17.25
2023-04-11T10:17:22.698Z,14.32
2023-04-11T10:19:56.667Z,15.57
2023-04-11T10:22:46.579Z,13.52
2023-04-11T10:25:17.979Z,14.35
2023-04-11T10:27:53.564Z,14.63
2023-04-11T10:30:43.697Z,14.20
2023-04-11T10:33:19.536Z,14.75
2023-04-11T10:36:10.158Z,14.75
2023-04-11T10:38:43.753Z,14.65
2023-04-11T10:41:22.918Z,12.52
2023-04-11T10:46:26.733Z,12.45
2023-04-11T10:49:04.805Z,14.75
2023-04-11T10:51:33.362Z,11.93
2023-04-11T10:54:00.932Z,12.57
2023-04-11T10:56:40.909Z,12.75
2023-04-11T10:59:10.754Z,13.98
2023-04-11T11:04:11.073Z,15.20
2023-04-11T11:06:47.212Z,12.23
2023-04-11T11:09:23.560Z,12.18
2023-04-11T11:12:16.191Z,11.98
2023-04-11T11:14:45.803Z,11.90
2023-04-11T11:17:14.495Z,12.38
2023-04-11T11:19:45.897Z,12.80
2023-04-11T11:22:17.413Z,13.20
2023-04-11T11:24:44.352Z,14.95
2023-04-11T11:27:22.715Z,12.63
2023-04-11T11:29:50.974Z,14.43
2023-04-11T11:32:24.898Z,13.85
2023-04-11T11:34:53.462Z,14.23
2023-04-11T11:37:21.537Z,13.13
2023-04-11T11:39:49.556Z,17.40
2023-04-11T11:42:17.123Z,12.63
2023-04-11T11:44:44.317Z,13.32
2023-04-11T11:47:15.584Z,14.23
2023-04-11T11:49:44.608Z,13.68
2023-04-11T11:52:12.626Z,12.48
2023-04-11T11:54:47.386Z,13.50
2023-04-11T11:57:24.434Z,13.43
2023-04-11T11:59:55.097Z,11.57
2023-04-11T12:02:24.167Z,12.10
2023-04-11T12:05:00.264Z,13.10
2023-04-11T12:07:32.739Z,11.20
2023-04-11T12:10:01.324Z,12.32
2023-04-11T12:12:38.612Z,12.43
2023-04-11T12:15:16.863Z,13.90
2023-04-11T12:17:47.759Z,11.07
2023-04-11T12:20:17.642Z,12.93
2023-04-11T12:22:44.615Z,15.63
2023-04-11T12:25:14.176Z,13.05
2023-04-11T12:27:43.307Z,12.77
2023-04-11T12:30:13.469Z,12.05
2023-04-11T12:32:41.395Z,11.55
2023-04-11T12:35:08.842Z,13.75
2023-04-11T12:37:35.974Z,15.48
2023-04-11T12:40:07.209Z,12.07
2023-04-11T12:42:36.860Z,12.68
2023-04-11T12:45:11.045Z,12.10
2023-04-11T12:47:38.321Z,12.48
2023-04-11T12:50:07.264Z,13.27
2023-04-11T12:52:35.189Z,11.50
2023-04-11T12:55:02.614Z,10.30
2023-04-11T12:57:30.875Z,11.35
2023-04-11T12:59:58.037Z,12.07
2023-04-11T13:02:25.503Z,10.30
2023-04-11T13:04:55.710Z,12.05
2023-04-11T13:07:23.328Z,12.05
2023-04-11T13:09:50.519Z,12.73
2023-04-11T13:12:17.790Z,11.60
2023-04-11T13:14:44.940Z,13.50
2023-04-11T13:17:12.078Z,12.30
2023-04-11T13:19:39.183Z,12.02
2023-04-11T13:22:06.638Z,12.07
2023-04-11T13:24:33.749Z,12.75
2023-04-11T13:27:01.211Z,11.85
2023-04-11T13:29:28.348Z,12.32
2023-04-11T13:31:55.888Z,13.18
2023-04-11T13:34:23.177Z,12.20
2023-04-11T13:36:51.428Z,11.68
2023-04-11T13:39:18.414Z,12.65
2023-04-11T13:41:46.008Z,13.40
2023-04-11T13:44:13.028Z,13.27
2023-04-11T13:46:41.501Z,12.10
2023-04-11T13:49:08.741Z,14.27
2023-04-11T13:51:35.834Z,13.70
2023-04-11T13:54:03.025Z,14.18
2023-04-11T13:56:30.092Z,14.90
2023-04-11T13:58:57.532Z,13.55
2023-04-11T14:01:24.755Z,17.92
2023-04-11T14:03:52.370Z,14.68
2023-04-11T14:06:19.899Z,12.90
2023-04-11T14:08:48.646Z,13.98
2023-04-11T14:11:16.616Z,13.55
2023-04-11T14:13:43.669Z,12.80
2023-04-11T14:16:11.437Z,12.40
2023-04-11T14:18:38.409Z,13.00
2023-04-11T14:21:23.969Z,13.77
2023-04-11T14:23:51.172Z,14.15
2023-04-11T14:26:18.969Z,13.65
2023-04-11T14:28:46.158Z,14.65
2023-04-11T14:31:17.812Z,14.18
2023-04-11T14:33:44.918Z,15.80
2023-04-11T14:36:11.909Z,15.90
2023-04-11T14:38:39.377Z,13.43
2023-04-11T14:41:07.242Z,15.00
2023-04-11T14:43:34.547Z,14.00
2023-04-11T14:46:01.672Z,16.13
2023-04-11T14:48:28.971Z,13.95
2023-04-11T14:50:56.302Z,14.25
2023-04-11T14:53:23.272Z,14.27
2023-04-11T14:55:50.188Z,17.13
2023-04-11T14:58:17.652Z,16.20
2023-04-11T15:00:44.844Z,15.98
2023-04-11T15:03:12.441Z,15.27
2023-04-11T15:05:40.069Z,14.75
2023-04-11T15:08:08.220Z,14.93
2023-04-11T15:10:35.132Z,14.90
2023-04-11T15:13:02.182Z,16.00
2023-04-11T15:15:29.200Z,16.85
2023-04-11T15:18:19.855Z,14.80
2023-04-11T15:20:46.956Z,15.40
2023-04-11T15:23:13.948Z,16.00
2023-04-11T15:25:40.957Z,15.00
2023-04-11T15:28:08.726Z,14.65
2023-04-11T15:30:45.429Z,17.50
2023-04-11T15:33:12.883Z,14.55
2023-04-11T15:35:43.676Z,15.75
2023-04-11T15:38:12.456Z,14.43
2023-04-11T15:40:39.838Z,15.63
2023-04-11T15:43:08.677Z,15.60
2023-04-11T15:45:37.303Z,16.00
2023-04-11T15:48:04.540Z,14.90
2023-04-11T15:50:32.374Z,17.58
2023-04-11T15:52:59.632Z,16.23
2023-04-11T15:55:28.038Z,16.92
2023-04-11T15:57:55.956Z,16.27
2023-04-11T16:00:23.197Z,15.15
2023-04-11T16:02:50.848Z,17.90
2023-04-11T16:05:20.998Z,22.48
2023-04-11T16:07:48.467Z,16.38
2023-04-11T16:10:15.681Z,16.95
2023-04-11T16:12:42.796Z,15.20
2023-04-11T16:15:10.052Z,16.13
2023-04-11T16:17:37.070Z,15.88
2023-04-11T16:20:08.835Z,15.98
2023-04-11T16:22:37.599Z,15.82
2023-04-11T16:25:08.321Z,15.98
2023-04-11T16:27:35.558Z,15.77
2023-04-11T16:30:09.459Z,19.98
2023-04-11T16:32:36.673Z,16.85
2023-04-11T16:35:03.857Z,18.08
2023-04-11T16:37:30.919Z,17.33
2023-04-11T16:39:58.094Z,17.77
2023-04-11T16:42:25.288Z,16.98
2023-04-11T16:44:52.441Z,15.18
2023-04-11T16:47:21.080Z,17.88
2023-04-11T16:49:48.251Z,15.18
2023-04-11T16:52:15.526Z,17.35
2023-04-11T16:54:42.876Z,16.52
2023-04-11T16:57:09.935Z,18.13
2023-04-11T16:59:37.195Z,18.50
2023-04-11T17:02:04.226Z,18.10
2023-04-11T17:04:31.577Z,15.98
2023-04-11T17:06:58.741Z,17.27
2023-04-11T17:09:27.083Z,18.00
2023-04-11T17:11:54.755Z,19.92
2023-04-11T17:14:22.085Z,16.95
2023-04-11T17:16:49.166Z,17.25
2023-04-11T17:19:16.263Z,15.98
2023-04-11T17:21:43.332Z,20.80
2023-04-11T17:24:10.419Z,15.38
2023-04-11T17:26:37.657Z,16.27
2023-04-11T17:29:06.661Z,16.85
2023-04-11T17:31:34.085Z,16.83
2023-04-11T17:34:02.062Z,19.02
2023-04-11T17:36:29.190Z,16.95
2023-04-11T17:38:56.304Z,18.70
2023-04-11T17:41:23.701Z,19.02
2023-04-11T17:43:50.788Z,17.77
2023-04-11T17:46:18.448Z,18.30
2023-04-11T17:48:45.470Z,16.73
2023-04-11T17:51:13.747Z,19.15
2023-04-11T17:53:41.350Z,18.67
2023-04-11T17:56:15.620Z,19.67
2023-04-11T17:58:44.925Z,19.30
2023-04-11T18:01:12.491Z,17.88
2023-04-11T18:03:40.452Z,19.23
2023-04-11T18:06:08.022Z,19.42
2023-04-11T18:08:49.879Z,20.20
2023-04-11T18:11:19.379Z,18.48
2023-04-11T18:13:49.451Z,17.90
2023-04-11T18:16:17.731Z,19.17
2023-04-11T18:18:46.586Z,16.88
2023-04-11T18:21:14.521Z,17.42
2023-04-11T18:23:41.756Z,19.48
2023-04-11T18:26:09.048Z,16.65
2023-04-11T18:28:36.573Z,16.30
2023-04-11T18:31:04.508Z,17.95
2023-04-11T18:33:34.533Z,15.63
2023-04-11T18:36:03.283Z,18.98
2023-04-11T18:38:30.494Z,16.40
2023-04-11T18:41:03.911Z,17.45
2023-04-11T18:43:33.857Z,17.83
2023-04-11T18:46:01.886Z,15.98
2023-04-11T18:48:29.272Z,17.92
2023-04-11T18:51:00.847Z,15.35
2023-04-11T18:53:30.153Z,16.77
2023-04-11T18:55:58.040Z,15.63
2023-04-11T18:58:27.007Z,15.20
2023-04-11T19:00:56.889Z,16.92
2023-04-11T19:03:24.355Z,16.35
2023-04-11T19:05:51.928Z,16.10
2023-04-11T19:08:19.092Z,15.50
2023-04-11T19:10:46.218Z,16.05
2023-04-11T19:13:13.244Z,17.58
2023-04-11T19:15:41.589Z,15.55
2023-04-11T19:18:10.538Z,14.93
2023-04-11T19:20:39.023Z,15.13
2023-04-11T19:23:06.607Z,15.55
2023-04-11T19:25:36.153Z,15.13
2023-04-11T19:28:03.428Z,18.65
2023-04-11T19:30:30.539Z,15.32
2023-04-11T19:32:58.850Z,16.45
2023-04-11T19:35:26.687Z,17.20
2023-04-11T19:37:54.933Z,15.65
2023-04-11T19:40:25.139Z,15.25
2023-04-11T19:42:52.456Z,17.92
2023-04-11T19:45:19.722Z,15.77
2023-04-11T19:47:46.882Z,17.27
2023-04-11T19:50:14.563Z,14.68
2023-04-11T19:52:43.308Z,15.68
2023-04-11T19:55:13.192Z,16.13
2023-04-11T19:57:41.223Z,13.98
2023-04-11T20:00:13.977Z,14.45
2023-04-11T20:02:46.413Z,14.48
2023-04-11T20:05:16.074Z,15.48
2023-04-11T20:10:12.142Z,13.93
2023-04-11T20:12:40.052Z,15.07
2023-04-11T20:15:08.498Z,16.63
2023-04-11T20:17:35.763Z,15.48
2023-04-11T20:20:06.502Z,15.18
2023-04-11T20:22:33.797Z,15.00
2023-04-11T20:25:01.123Z,15.15
2023-04-11T20:27:29.759Z,16.05
2023-04-11T20:29:57.316Z,16.98
2023-04-11T20:32:24.567Z,16.67
2023-04-11T20:34:51.798Z,14.77
2023-04-11T20:37:19.730Z,14.30
2023-04-11T20:39:51.683Z,23.60
2023-04-11T20:42:20.704Z,13.68
2023-04-11T20:44:47.841Z,13.80
2023-04-11T20:47:15.174Z,14.43
2023-04-11T20:49:45.817Z,14.02
2023-04-11T20:52:13.366Z,12.38
2023-04-11T20:54:41.152Z,14.50
2023-04-11T20:57:08.324Z,16.60
2023-04-11T20:59:37.071Z,15.07
2023-04-11T21:02:04.202Z,14.02
2023-04-11T21:04:31.312Z,14.00
2023-04-11T21:06:58.792Z,13.32
2023-04-11T21:09:25.973Z,15.07
2023-04-11T21:11:53.021Z,15.40
2023-04-11T21:14:20.012Z,13.77
2023-04-11T21:16:47.097Z,15.10
2023-04-11T21:19:14.079Z,13.63
2023-04-11T21:21:41.105Z,14.27
2023-04-11T21:24:09.579Z,14.73
2023-04-11T21:26:36.952Z,17.50
2023-04-11T21:29:03.920Z,15.77
2023-04-11T21:31:31.029Z,13.30
2023-04-11T21:33:58.738Z,14.23
2023-04-11T21:36:26.628Z,13.60
2023-04-11T21:38:53.803Z,12.82
2023-04-11T21:41:21.316Z,14.00
2023-04-11T21:43:48.517Z,16.00
2023-04-11T21:46:15.572Z,14.23
2023-04-11T21:48:43.208Z,14.32
2023-04-11T21:51:10.855Z,13.57
2023-04-11T21:53:38.022Z,15.00
2023-04-11T21:56:07.584Z,14.18
2023-04-11T21:58:35.099Z,13.48
2023-04-11T22:01:03.116Z,13.85
2023-04-11T22:03:30.689Z,12.98
2023-04-11T22:05:58.834Z,15.45
2023-04-11T22:08:29.391Z,14.55
2023-04-11T22:10:56.692Z,15.70
2023-04-11T22:13:24.010Z,14.25
2023-04-11T22:16:10.439Z,13.18
2023-04-11T22:18:49.893Z,12.95
2023-04-11T22:23:58.240Z,15.18
2023-04-11T22:26:29.742Z,15.30
2023-04-11T22:29:02.030Z,14.85
2023-04-11T22:31:30.631Z,13.77
2023-04-11T22:33:58.158Z,14.18
2023-04-11T22:36:25.488Z,14.40
2023-04-11T22:38:53.085Z,16.00
2023-04-11T22:54:57.227Z,13.23
2023-04-11T22:57:24.456Z,14.15
2023-04-11T22:59:52.428Z,15.98
2023-04-11T23:02:19.530Z,14.50
2023-04-11T23:04:48.879Z,14.40
2023-04-11T23:09:44.983Z,17.40
2023-04-11T23:12:12.219Z,16.23
2023-04-11T23:14:39.615Z,15.35
2023-04-11T23:17:06.690Z,18.55
2023-04-11T23:19:34.185Z,17.17
2023-04-11T23:22:01.251Z,15.80
2023-04-11T23:24:29.066Z,16.13
2023-04-11T23:26:56.951Z,16.00
2023-04-11T23:29:24.056Z,16.33
2023-04-11T23:31:51.620Z,16.40
2023-04-11T23:34:18.623Z,18.65
2023-04-11T23:36:46.050Z,15.02
2023-04-11T23:39:12.941Z,19.02
2023-04-11T23:41:40.320Z,17.83
2023-04-11T23:44:07.282Z,15.75
2023-04-11T23:46:34.443Z,16.50
2023-04-11T23:49:01.504Z,16.48
2023-04-11T23:51:28.444Z,17.15
2023-04-11T23:53:56.291Z,17.15
2023-04-11T23:56:23.830Z,16.63
2023-04-11T23:58:51.212Z,16.10
